sensor_id;sensor_type;location;lat;lon;timestamp;temperature;humidity
24420;DHT22;12599;52.426;13.330;2022-07-06T00:01:24;20.00;94.90
24420;DHT22;12599;52.426;13.330;2022-07-06T00:03:49;18.70;94.70
24420;DHT22;12599;52.426;13.330;2022-07-06T00:06:15;18.70;94.70
24420;DHT22;12599;52.426;13.330;2022-07-06T00:08:43;18.70;94.80
24420;DHT22;12599;52.426;13.330;2022-07-06T00:11:09;18.70;94.90
24420;DHT22;12599;52.426;13.330;2022-07-06T00:13:35;18.60;94.90
24420;DHT22;12599;52.426;13.330;2022-07-06T00:16:00;18.60;95.00
24420;DHT22;12599;52.426;13.330;2022-07-06T00:18:26;18.50;95.10
24420;DHT22;12599;52.426;13.330;2022-07-06T00:20:51;18.60;95.10
24420;DHT22;12599;52.426;13.330;2022-07-06T00:23:17;18.50;95.20
24420;DHT22;12599;52.426;13.330;2022-07-06T00:25:44;18.50;95.30
24420;DHT22;12599;52.426;13.330;2022-07-06T00:28:09;18.50;95.40
24420;DHT22;12599;52.426;13.330;2022-07-06T00:30:35;18.50;95.70
24420;DHT22;12599;52.426;13.330;2022-07-06T00:33:00;18.50;95.60
24420;DHT22;12599;52.426;13.330;2022-07-06T00:35:26;20.60;96.20
24420;DHT22;12599;52.426;13.330;2022-07-06T00:37:52;18.50;95.80
24420;DHT22;12599;52.426;13.330;2022-07-06T00:40:18;18.40;95.80
24420;DHT22;12599;52.426;13.330;2022-07-06T00:42:48;18.40;95.90
24420;DHT22;12599;52.426;13.330;2022-07-06T00:45:15;18.40;96.00
24420;DHT22;12599;52.426;13.330;2022-07-06T00:47:41;18.40;96.20
24420;DHT22;12599;52.426;13.330;2022-07-06T00:50:08;18.40;96.20
24420;DHT22;12599;52.426;13.330;2022-07-06T00:52:45;18.40;96.20
24420;DHT22;12599;52.426;13.330;2022-07-06T00:55:12;18.40;96.20
24420;DHT22;12599;52.426;13.330;2022-07-06T00:57:39;18.40;96.20
24420;DHT22;12599;52.426;13.330;2022-07-06T01:00:07;18.50;96.20
24420;DHT22;12599;52.426;13.330;2022-07-06T01:02:35;18.50;96.20
24420;DHT22;12599;52.426;13.330;2022-07-06T01:05:03;19.50;96.80
24420;DHT22;12599;52.426;13.330;2022-07-06T01:07:29;18.90;96.80
24420;DHT22;12599;52.426;13.330;2022-07-06T01:09:55;18.50;96.40
24420;DHT22;12599;52.426;13.330;2022-07-06T01:12:21;18.40;96.50
24420;DHT22;12599;52.426;13.330;2022-07-06T01:14:47;18.40;96.70
24420;DHT22;12599;52.426;13.330;2022-07-06T01:17:13;18.40;96.70
24420;DHT22;12599;52.426;13.330;2022-07-06T01:19:39;19.30;97.00
24420;DHT22;12599;52.426;13.330;2022-07-06T01:22:05;18.30;96.90
24420;DHT22;12599;52.426;13.330;2022-07-06T01:24:30;18.70;97.40
24420;DHT22;12599;52.426;13.330;2022-07-06T01:26:56;18.20;97.30
24420;DHT22;12599;52.426;13.330;2022-07-06T01:29:22;18.20;97.30
24420;DHT22;12599;52.426;13.330;2022-07-06T01:31:49;18.10;97.40
24420;DHT22;12599;52.426;13.330;2022-07-06T01:34:16;18.10;97.60
24420;DHT22;12599;52.426;13.330;2022-07-06T01:36:43;18.00;97.60
24420;DHT22;12599;52.426;13.330;2022-07-06T01:39:09;19.20;98.20
24420;DHT22;12599;52.426;13.330;2022-07-06T01:41:35;17.90;97.90
24420;DHT22;12599;52.426;13.330;2022-07-06T01:44:02;17.90;97.90
24420;DHT22;12599;52.426;13.330;2022-07-06T01:46:27;17.90;97.90
24420;DHT22;12599;52.426;13.330;2022-07-06T01:48:53;17.90;98.10
24420;DHT22;12599;52.426;13.330;2022-07-06T01:51:19;17.90;98.10
24420;DHT22;12599;52.426;13.330;2022-07-06T01:53:45;18.00;98.20
24420;DHT22;12599;52.426;13.330;2022-07-06T01:56:11;18.00;98.20
24420;DHT22;12599;52.426;13.330;2022-07-06T01:58:37;18.00;98.10
24420;DHT22;12599;52.426;13.330;2022-07-06T02:01:10;18.00;98.30
24420;DHT22;12599;52.426;13.330;2022-07-06T02:03:37;17.90;98.40
24420;DHT22;12599;52.426;13.330;2022-07-06T02:06:03;17.80;98.50
24420;DHT22;12599;52.426;13.330;2022-07-06T02:08:31;17.80;98.50
24420;DHT22;12599;52.426;13.330;2022-07-06T02:10:56;17.70;98.70
24420;DHT22;12599;52.426;13.330;2022-07-06T02:13:22;17.80;98.90
24420;DHT22;12599;52.426;13.330;2022-07-06T02:15:48;17.70;98.70
24420;DHT22;12599;52.426;13.330;2022-07-06T02:18:13;17.60;98.80
24420;DHT22;12599;52.426;13.330;2022-07-06T02:20:39;19.30;99.60
24420;DHT22;12599;52.426;13.330;2022-07-06T02:23:05;20.20;99.90
24420;DHT22;12599;52.426;13.330;2022-07-06T02:25:31;17.50;99.80
24420;DHT22;12599;52.426;13.330;2022-07-06T02:27:57;20.00;99.90
24420;DHT22;12599;52.426;13.330;2022-07-06T02:30:22;18.30;99.90
24420;DHT22;12599;52.426;13.330;2022-07-06T02:32:48;17.30;99.90
24420;DHT22;12599;52.426;13.330;2022-07-06T02:35:13;17.10;99.90
24420;DHT22;12599;52.426;13.330;2022-07-06T02:37:39;17.00;99.90
24420;DHT22;12599;52.426;13.330;2022-07-06T02:40:05;17.00;99.90
24420;DHT22;12599;52.426;13.330;2022-07-06T02:42:31;16.90;99.90
24420;DHT22;12599;52.426;13.330;2022-07-06T02:44:57;16.80;99.90
24420;DHT22;12599;52.426;13.330;2022-07-06T02:47:22;18.70;99.90
24420;DHT22;12599;52.426;13.330;2022-07-06T02:49:48;19.20;99.90
24420;DHT22;12599;52.426;13.330;2022-07-06T02:52:14;16.90;99.90
24420;DHT22;12599;52.426;13.330;2022-07-06T02:54:39;16.90;99.90
24420;DHT22;12599;52.426;13.330;2022-07-06T02:57:05;16.90;99.90
24420;DHT22;12599;52.426;13.330;2022-07-06T02:59:30;19.60;99.90
24420;DHT22;12599;52.426;13.330;2022-07-06T03:01:56;17.00;99.90
24420;DHT22;12599;52.426;13.330;2022-07-06T03:04:22;16.90;99.90
24420;DHT22;12599;52.426;13.330;2022-07-06T03:06:47;19.50;99.90
24420;DHT22;12599;52.426;13.330;2022-07-06T03:09:13;17.00;99.90
24420;DHT22;12599;52.426;13.330;2022-07-06T03:11:39;17.10;99.90
24420;DHT22;12599;52.426;13.330;2022-07-06T03:14:05;17.10;99.90
24420;DHT22;12599;52.426;13.330;2022-07-06T03:16:31;18.10;99.90
24420;DHT22;12599;52.426;13.330;2022-07-06T03:18:56;17.10;99.90
24420;DHT22;12599;52.426;13.330;2022-07-06T03:21:23;17.10;99.90
24420;DHT22;12599;52.426;13.330;2022-07-06T03:23:49;17.00;99.90
24420;DHT22;12599;52.426;13.330;2022-07-06T03:26:15;16.90;99.90
24420;DHT22;12599;52.426;13.330;2022-07-06T03:28:40;17.00;99.90
24420;DHT22;12599;52.426;13.330;2022-07-06T03:31:06;16.90;99.90
24420;DHT22;12599;52.426;13.330;2022-07-06T03:33:31;17.00;99.90
24420;DHT22;12599;52.426;13.330;2022-07-06T03:35:57;16.90;99.90
24420;DHT22;12599;52.426;13.330;2022-07-06T03:38:22;19.70;99.90
24420;DHT22;12599;52.426;13.330;2022-07-06T03:40:48;18.90;99.90
24420;DHT22;12599;52.426;13.330;2022-07-06T03:43:14;16.90;99.90
24420;DHT22;12599;52.426;13.330;2022-07-06T03:45:39;17.70;99.90
24420;DHT22;12599;52.426;13.330;2022-07-06T03:48:05;16.90;99.90
24420;DHT22;12599;52.426;13.330;2022-07-06T03:50:31;16.90;99.90
24420;DHT22;12599;52.426;13.330;2022-07-06T03:52:56;16.90;99.90
24420;DHT22;12599;52.426;13.330;2022-07-06T03:55:22;16.80;99.90
24420;DHT22;12599;52.426;13.330;2022-07-06T03:57:47;18.70;99.90
24420;DHT22;12599;52.426;13.330;2022-07-06T04:00:14;16.80;99.90
24420;DHT22;12599;52.426;13.330;2022-07-06T04:02:39;16.80;99.90
24420;DHT22;12599;52.426;13.330;2022-07-06T04:05:05;17.00;99.90
24420;DHT22;12599;52.426;13.330;2022-07-06T04:07:31;16.90;99.90
24420;DHT22;12599;52.426;13.330;2022-07-06T04:09:57;17.00;99.90
24420;DHT22;12599;52.426;13.330;2022-07-06T04:12:23;16.90;99.90
24420;DHT22;12599;52.426;13.330;2022-07-06T04:14:48;16.90;99.90
24420;DHT22;12599;52.426;13.330;2022-07-06T04:17:14;17.10;99.90
24420;DHT22;12599;52.426;13.330;2022-07-06T04:19:58;16.90;99.90
24420;DHT22;12599;52.426;13.330;2022-07-06T04:22:24;17.10;99.90
24420;DHT22;12599;52.426;13.330;2022-07-06T04:24:49;17.10;99.90
24420;DHT22;12599;52.426;13.330;2022-07-06T04:27:15;17.00;99.90
24420;DHT22;12599;52.426;13.330;2022-07-06T04:29:41;16.70;99.90
24420;DHT22;12599;52.426;13.330;2022-07-06T04:32:06;17.40;99.90
24420;DHT22;12599;52.426;13.330;2022-07-06T04:34:32;16.80;99.90
24420;DHT22;12599;52.426;13.330;2022-07-06T04:36:58;16.90;99.90
24420;DHT22;12599;52.426;13.330;2022-07-06T04:39:23;16.90;99.90
24420;DHT22;12599;52.426;13.330;2022-07-06T04:41:49;17.10;99.90
24420;DHT22;12599;52.426;13.330;2022-07-06T04:44:15;17.20;99.90
24420;DHT22;12599;52.426;13.330;2022-07-06T04:46:40;17.60;99.90
24420;DHT22;12599;52.426;13.330;2022-07-06T04:49:06;18.80;99.90
24420;DHT22;12599;52.426;13.330;2022-07-06T04:51:32;17.10;99.90
24420;DHT22;12599;52.426;13.330;2022-07-06T04:53:58;17.20;99.90
24420;DHT22;12599;52.426;13.330;2022-07-06T04:56:23;17.20;99.90
24420;DHT22;12599;52.426;13.330;2022-07-06T04:58:49;20.00;99.90
24420;DHT22;12599;52.426;13.330;2022-07-06T05:01:14;16.90;99.90
24420;DHT22;12599;52.426;13.330;2022-07-06T05:03:40;17.10;99.90
24420;DHT22;12599;52.426;13.330;2022-07-06T05:06:07;17.10;99.90
24420;DHT22;12599;52.426;13.330;2022-07-06T05:08:33;17.10;99.90
24420;DHT22;12599;52.426;13.330;2022-07-06T05:10:59;17.00;99.90
24420;DHT22;12599;52.426;13.330;2022-07-06T05:13:25;17.00;99.90
24420;DHT22;12599;52.426;13.330;2022-07-06T05:15:50;17.00;99.90
24420;DHT22;12599;52.426;13.330;2022-07-06T05:18:16;19.00;99.90
24420;DHT22;12599;52.426;13.330;2022-07-06T05:20:41;17.00;99.90
24420;DHT22;12599;52.426;13.330;2022-07-06T05:23:08;17.00;99.90
24420;DHT22;12599;52.426;13.330;2022-07-06T05:25:33;17.10;99.90
24420;DHT22;12599;52.426;13.330;2022-07-06T05:27:59;17.30;99.90
24420;DHT22;12599;52.426;13.330;2022-07-06T05:30:26;17.40;99.90
24420;DHT22;12599;52.426;13.330;2022-07-06T05:32:51;17.40;99.90
24420;DHT22;12599;52.426;13.330;2022-07-06T05:35:17;17.30;99.90
24420;DHT22;12599;52.426;13.330;2022-07-06T05:37:43;17.40;99.90
24420;DHT22;12599;52.426;13.330;2022-07-06T05:40:09;17.30;99.90
24420;DHT22;12599;52.426;13.330;2022-07-06T05:42:35;17.30;99.90
24420;DHT22;12599;52.426;13.330;2022-07-06T05:45:01;17.40;99.90
24420;DHT22;12599;52.426;13.330;2022-07-06T05:47:28;17.20;99.90
24420;DHT22;12599;52.426;13.330;2022-07-06T05:50:13;17.20;99.90
24420;DHT22;12599;52.426;13.330;2022-07-06T05:52:40;19.40;99.90
24420;DHT22;12599;52.426;13.330;2022-07-06T05:55:06;17.40;99.90
24420;DHT22;12599;52.426;13.330;2022-07-06T05:57:31;17.40;99.90
24420;DHT22;12599;52.426;13.330;2022-07-06T05:59:57;18.50;99.90
24420;DHT22;12599;52.426;13.330;2022-07-06T06:02:22;17.60;99.90
24420;DHT22;12599;52.426;13.330;2022-07-06T06:04:48;17.70;99.90
24420;DHT22;12599;52.426;13.330;2022-07-06T06:07:14;17.60;99.90
24420;DHT22;12599;52.426;13.330;2022-07-06T06:09:39;17.80;99.90
24420;DHT22;12599;52.426;13.330;2022-07-06T06:12:05;17.90;99.90
24420;DHT22;12599;52.426;13.330;2022-07-06T06:14:31;17.80;99.90
24420;DHT22;12599;52.426;13.330;2022-07-06T06:16:57;17.80;99.90
24420;DHT22;12599;52.426;13.330;2022-07-06T06:19:23;17.50;99.90
24420;DHT22;12599;52.426;13.330;2022-07-06T06:21:49;20.50;99.90
24420;DHT22;12599;52.426;13.330;2022-07-06T06:24:14;17.50;99.90
24420;DHT22;12599;52.426;13.330;2022-07-06T06:26:40;17.60;99.90
24420;DHT22;12599;52.426;13.330;2022-07-06T06:29:06;17.80;99.90
24420;DHT22;12599;52.426;13.330;2022-07-06T06:31:31;17.90;99.90
24420;DHT22;12599;52.426;13.330;2022-07-06T06:33:57;18.00;99.90
24420;DHT22;12599;52.426;13.330;2022-07-06T06:36:22;18.00;99.90
24420;DHT22;12599;52.426;13.330;2022-07-06T06:38:48;19.90;99.90
24420;DHT22;12599;52.426;13.330;2022-07-06T06:41:14;18.10;99.90
24420;DHT22;12599;52.426;13.330;2022-07-06T06:43:39;18.20;99.90
24420;DHT22;12599;52.426;13.330;2022-07-06T06:46:05;19.60;99.90
24420;DHT22;12599;52.426;13.330;2022-07-06T06:48:31;18.20;99.90
24420;DHT22;12599;52.426;13.330;2022-07-06T06:50:57;18.30;99.90
24420;DHT22;12599;52.426;13.330;2022-07-06T06:53:22;18.20;99.90
24420;DHT22;12599;52.426;13.330;2022-07-06T06:55:48;18.20;99.90
24420;DHT22;12599;52.426;13.330;2022-07-06T06:58:14;19.30;99.90
24420;DHT22;12599;52.426;13.330;2022-07-06T07:00:39;18.30;99.90
24420;DHT22;12599;52.426;13.330;2022-07-06T07:03:05;18.20;99.90
24420;DHT22;12599;52.426;13.330;2022-07-06T07:05:31;18.10;99.90
24420;DHT22;12599;52.426;13.330;2022-07-06T07:07:56;20.20;99.90
24420;DHT22;12599;52.426;13.330;2022-07-06T07:10:25;19.20;99.90
24420;DHT22;12599;52.426;13.330;2022-07-06T07:12:51;18.70;99.90
24420;DHT22;12599;52.426;13.330;2022-07-06T07:15:17;18.90;99.90
24420;DHT22;12599;52.426;13.330;2022-07-06T07:17:42;18.90;99.90
24420;DHT22;12599;52.426;13.330;2022-07-06T07:20:09;18.50;99.90
24420;DHT22;12599;52.426;13.330;2022-07-06T07:22:34;18.60;99.90
24420;DHT22;12599;52.426;13.330;2022-07-06T07:25:00;18.40;99.90
24420;DHT22;12599;52.426;13.330;2022-07-06T07:27:26;18.50;99.90
24420;DHT22;12599;52.426;13.330;2022-07-06T07:29:51;18.70;99.90
24420;DHT22;12599;52.426;13.330;2022-07-06T07:32:18;18.80;99.90
24420;DHT22;12599;52.426;13.330;2022-07-06T07:34:45;18.50;99.60
24420;DHT22;12599;52.426;13.330;2022-07-06T07:37:11;19.80;99.60
24420;DHT22;12599;52.426;13.330;2022-07-06T07:39:46;18.50;99.70
24420;DHT22;12599;52.426;13.330;2022-07-06T07:42:11;18.40;99.80
24420;DHT22;12599;52.426;13.330;2022-07-06T07:44:37;18.70;99.60
24420;DHT22;12599;52.426;13.330;2022-07-06T07:47:04;20.60;99.20
24420;DHT22;12599;52.426;13.330;2022-07-06T07:49:30;19.20;98.20
24420;DHT22;12599;52.426;13.330;2022-07-06T07:51:55;20.20;97.90
24420;DHT22;12599;52.426;13.330;2022-07-06T07:54:21;20.20;98.30
24420;DHT22;12599;52.426;13.330;2022-07-06T07:56:47;18.90;97.90
24420;DHT22;12599;52.426;13.330;2022-07-06T07:59:12;19.20;97.30
24420;DHT22;12599;52.426;13.330;2022-07-06T08:01:38;19.20;97.60
24420;DHT22;12599;52.426;13.330;2022-07-06T08:04:04;19.00;97.50
24420;DHT22;12599;52.426;13.330;2022-07-06T08:06:29;20.30;98.00
24420;DHT22;12599;52.426;13.330;2022-07-06T08:08:55;19.30;97.50
24420;DHT22;12599;52.426;13.330;2022-07-06T08:11:20;19.30;97.50
24420;DHT22;12599;52.426;13.330;2022-07-06T08:13:47;19.50;97.50
24420;DHT22;12599;52.426;13.330;2022-07-06T08:16:13;19.70;97.00
24420;DHT22;12599;52.426;13.330;2022-07-06T08:18:38;19.70;97.00
24420;DHT22;12599;52.426;13.330;2022-07-06T08:21:04;19.90;97.10
24420;DHT22;12599;52.426;13.330;2022-07-06T08:23:30;19.70;96.70
24420;DHT22;12599;52.426;13.330;2022-07-06T08:25:56;19.70;96.90
24420;DHT22;12599;52.426;13.330;2022-07-06T08:28:22;19.80;96.30
24420;DHT22;12599;52.426;13.330;2022-07-06T08:30:47;20.90;96.90
24420;DHT22;12599;52.426;13.330;2022-07-06T08:33:14;19.70;96.50
24420;DHT22;12599;52.426;13.330;2022-07-06T08:35:39;19.70;96.30
24420;DHT22;12599;52.426;13.330;2022-07-06T08:38:05;19.70;96.10
24420;DHT22;12599;52.426;13.330;2022-07-06T08:40:33;18.80;95.70
24420;DHT22;12599;52.426;13.330;2022-07-06T08:43:02;19.50;95.70
24420;DHT22;12599;52.426;13.330;2022-07-06T08:45:29;20.00;95.30
24420;DHT22;12599;52.426;13.330;2022-07-06T08:48:00;19.60;95.50
24420;DHT22;12599;52.426;13.330;2022-07-06T08:50:28;19.90;95.20
24420;DHT22;12599;52.426;13.330;2022-07-06T08:52:54;19.80;94.90
24420;DHT22;12599;52.426;13.330;2022-07-06T08:55:20;20.00;94.40
24420;DHT22;12599;52.426;13.330;2022-07-06T08:57:49;20.00;93.90
24420;DHT22;12599;52.426;13.330;2022-07-06T09:00:15;19.80;94.60
24420;DHT22;12599;52.426;13.330;2022-07-06T09:02:41;19.90;93.90
24420;DHT22;12599;52.426;13.330;2022-07-06T09:05:08;19.70;94.10
24420;DHT22;12599;52.426;13.330;2022-07-06T09:07:34;19.70;94.40
24420;DHT22;12599;52.426;13.330;2022-07-06T09:10:01;19.50;93.90
24420;DHT22;12599;52.426;13.330;2022-07-06T09:12:27;19.40;94.40
24420;DHT22;12599;52.426;13.330;2022-07-06T09:14:57;19.30;94.90
24420;DHT22;12599;52.426;13.330;2022-07-06T09:17:29;19.20;95.30
24420;DHT22;12599;52.426;13.330;2022-07-06T09:19:56;19.20;95.00
24420;DHT22;12599;52.426;13.330;2022-07-06T09:22:31;19.20;94.10
24420;DHT22;12599;52.426;13.330;2022-07-06T09:27:46;19.00;93.20
24420;DHT22;12599;52.426;13.330;2022-07-06T09:30:14;19.10;93.70
24420;DHT22;12599;52.426;13.330;2022-07-06T09:32:41;19.30;93.20
24420;DHT22;12599;52.426;13.330;2022-07-06T09:35:08;19.50;92.20
24420;DHT22;12599;52.426;13.330;2022-07-06T09:37:35;19.50;91.60
24420;DHT22;12599;52.426;13.330;2022-07-06T09:40:01;19.40;91.80
24420;DHT22;12599;52.426;13.330;2022-07-06T09:42:28;19.40;91.90
24420;DHT22;12599;52.426;13.330;2022-07-06T09:44:53;19.50;91.80
24420;DHT22;12599;52.426;13.330;2022-07-06T09:47:20;19.70;91.70
24420;DHT22;12599;52.426;13.330;2022-07-06T09:49:46;19.80;91.30
24420;DHT22;12599;52.426;13.330;2022-07-06T09:52:13;20.00;91.40
24420;DHT22;12599;52.426;13.330;2022-07-06T09:54:40;20.20;91.00
24420;DHT22;12599;52.426;13.330;2022-07-06T09:57:07;20.40;90.90
24420;DHT22;12599;52.426;13.330;2022-07-06T09:59:34;20.40;91.50
24420;DHT22;12599;52.426;13.330;2022-07-06T10:02:02;21.90;92.50
24420;DHT22;12599;52.426;13.330;2022-07-06T10:04:29;20.10;92.20
24420;DHT22;12599;52.426;13.330;2022-07-06T10:06:56;20.00;92.20
24420;DHT22;12599;52.426;13.330;2022-07-06T10:09:24;19.70;92.50
24420;DHT22;12599;52.426;13.330;2022-07-06T10:11:52;19.70;92.70
24420;DHT22;12599;52.426;13.330;2022-07-06T10:14:21;19.70;92.10
24420;DHT22;12599;52.426;13.330;2022-07-06T10:16:48;20.00;92.10
24420;DHT22;12599;52.426;13.330;2022-07-06T10:19:15;19.50;92.00
24420;DHT22;12599;52.426;13.330;2022-07-06T10:21:41;19.40;92.20
24420;DHT22;12599;52.426;13.330;2022-07-06T10:24:08;19.50;92.10
24420;DHT22;12599;52.426;13.330;2022-07-06T10:26:35;19.40;91.90
24420;DHT22;12599;52.426;13.330;2022-07-06T10:29:05;19.60;91.70
24420;DHT22;12599;52.426;13.330;2022-07-06T10:31:32;19.80;91.40
24420;DHT22;12599;52.426;13.330;2022-07-06T10:34:00;21.70;91.90
24420;DHT22;12599;52.426;13.330;2022-07-06T10:36:29;19.80;91.30
24420;DHT22;12599;52.426;13.330;2022-07-06T10:38:55;20.50;91.50
24420;DHT22;12599;52.426;13.330;2022-07-06T10:41:31;20.30;91.20
24420;DHT22;12599;52.426;13.330;2022-07-06T10:43:58;20.50;91.60
24420;DHT22;12599;52.426;13.330;2022-07-06T10:46:39;20.80;91.40
24420;DHT22;12599;52.426;13.330;2022-07-06T10:49:15;20.50;90.40
24420;DHT22;12599;52.426;13.330;2022-07-06T10:51:40;20.80;91.40
24420;DHT22;12599;52.426;13.330;2022-07-06T10:54:09;22.40;91.30
24420;DHT22;12599;52.426;13.330;2022-07-06T10:56:49;20.80;91.30
24420;DHT22;12599;52.426;13.330;2022-07-06T11:02:12;20.80;91.30
24420;DHT22;12599;52.426;13.330;2022-07-06T11:04:45;21.00;90.40
24420;DHT22;12599;52.426;13.330;2022-07-06T11:07:13;21.40;90.30
24420;DHT22;12599;52.426;13.330;2022-07-06T11:09:40;21.20;88.80
24420;DHT22;12599;52.426;13.330;2022-07-06T11:12:16;22.00;89.40
24420;DHT22;12599;52.426;13.330;2022-07-06T11:14:44;21.10;90.00
24420;DHT22;12599;52.426;13.330;2022-07-06T11:17:11;20.50;90.60
24420;DHT22;12599;52.426;13.330;2022-07-06T11:19:37;20.80;91.30
24420;DHT22;12599;52.426;13.330;2022-07-06T11:22:09;21.50;91.70
24420;DHT22;12599;52.426;13.330;2022-07-06T11:24:41;19.80;92.00
24420;DHT22;12599;52.426;13.330;2022-07-06T11:27:07;19.80;92.40
24420;DHT22;12599;52.426;13.330;2022-07-06T11:29:34;19.80;92.30
24420;DHT22;12599;52.426;13.330;2022-07-06T11:32:05;20.00;92.00
24420;DHT22;12599;52.426;13.330;2022-07-06T11:34:36;20.20;91.70
24420;DHT22;12599;52.426;13.330;2022-07-06T11:37:06;20.30;91.70
24420;DHT22;12599;52.426;13.330;2022-07-06T11:39:44;20.50;91.20
24420;DHT22;12599;52.426;13.330;2022-07-06T11:42:12;20.60;90.90
24420;DHT22;12599;52.426;13.330;2022-07-06T11:44:38;20.80;90.80
24420;DHT22;12599;52.426;13.330;2022-07-06T11:47:05;21.10;90.20
24420;DHT22;12599;52.426;13.330;2022-07-06T11:49:33;21.00;90.40
24420;DHT22;12599;52.426;13.330;2022-07-06T11:52:00;21.10;90.50
24420;DHT22;12599;52.426;13.330;2022-07-06T11:54:26;21.00;90.60
24420;DHT22;12599;52.426;13.330;2022-07-06T11:56:54;21.20;90.60
24420;DHT22;12599;52.426;13.330;2022-07-06T11:59:25;23.50;90.10
24420;DHT22;12599;52.426;13.330;2022-07-06T12:02:01;20.80;90.00
24420;DHT22;12599;52.426;13.330;2022-07-06T12:04:27;21.90;90.90
24420;DHT22;12599;52.426;13.330;2022-07-06T12:06:53;20.70;90.90
24420;DHT22;12599;52.426;13.330;2022-07-06T12:09:18;23.20;91.70
24420;DHT22;12599;52.426;13.330;2022-07-06T12:11:46;20.30;91.20
24420;DHT22;12599;52.426;13.330;2022-07-06T12:14:19;20.50;91.60
24420;DHT22;12599;52.426;13.330;2022-07-06T12:16:47;20.50;91.60
24420;DHT22;12599;52.426;13.330;2022-07-06T12:19:14;20.60;91.50
24420;DHT22;12599;52.426;13.330;2022-07-06T12:21:51;20.50;91.90
24420;DHT22;12599;52.426;13.330;2022-07-06T12:24:22;20.70;91.70
24420;DHT22;12599;52.426;13.330;2022-07-06T12:26:49;20.90;91.30
24420;DHT22;12599;52.426;13.330;2022-07-06T12:29:16;21.00;91.50
24420;DHT22;12599;52.426;13.330;2022-07-06T12:34:17;21.50;91.20
24420;DHT22;12599;52.426;13.330;2022-07-06T12:37:07;21.60;90.90
24420;DHT22;12599;52.426;13.330;2022-07-06T12:39:47;21.70;90.90
24420;DHT22;12599;52.426;13.330;2022-07-06T12:42:16;21.50;91.00
24420;DHT22;12599;52.426;13.330;2022-07-06T12:44:45;21.60;90.90
24420;DHT22;12599;52.426;13.330;2022-07-06T12:47:11;21.50;90.90
24420;DHT22;12599;52.426;13.330;2022-07-06T12:49:38;21.30;91.30
24420;DHT22;12599;52.426;13.330;2022-07-06T12:57:28;21.00;91.50
24420;DHT22;12599;52.426;13.330;2022-07-06T13:00:07;23.70;92.60
24420;DHT22;12599;52.426;13.330;2022-07-06T13:02:34;21.00;91.90
24420;DHT22;12599;52.426;13.330;2022-07-06T13:05:08;21.20;91.50
24420;DHT22;12599;52.426;13.330;2022-07-06T13:07:36;21.20;91.40
24420;DHT22;12599;52.426;13.330;2022-07-06T13:10:07;21.40;91.40
24420;DHT22;12599;52.426;13.330;2022-07-06T13:12:33;21.50;90.80
24420;DHT22;12599;52.426;13.330;2022-07-06T13:14:59;21.50;90.40
24420;DHT22;12599;52.426;13.330;2022-07-06T13:17:25;21.40;90.70
24420;DHT22;12599;52.426;13.330;2022-07-06T13:19:50;21.50;90.40
24420;DHT22;12599;52.426;13.330;2022-07-06T13:22:16;21.50;90.60
24420;DHT22;12599;52.426;13.330;2022-07-06T13:24:42;21.50;90.20
24420;DHT22;12599;52.426;13.330;2022-07-06T13:27:08;21.70;90.50
24420;DHT22;12599;52.426;13.330;2022-07-06T13:29:34;21.80;90.30
24420;DHT22;12599;52.426;13.330;2022-07-06T13:31:59;21.40;90.30
24420;DHT22;12599;52.426;13.330;2022-07-06T13:34:25;21.40;90.50
24420;DHT22;12599;52.426;13.330;2022-07-06T13:36:51;21.30;90.60
24420;DHT22;12599;52.426;13.330;2022-07-06T13:39:17;21.10;90.80
24420;DHT22;12599;52.426;13.330;2022-07-06T13:41:43;21.10;90.40
24420;DHT22;12599;52.426;13.330;2022-07-06T13:44:09;21.30;90.40
24420;DHT22;12599;52.426;13.330;2022-07-06T13:46:35;21.30;90.20
24420;DHT22;12599;52.426;13.330;2022-07-06T13:49:05;21.10;90.50
24420;DHT22;12599;52.426;13.330;2022-07-06T13:51:31;21.10;90.80
24420;DHT22;12599;52.426;13.330;2022-07-06T13:53:58;21.20;90.30
24420;DHT22;12599;52.426;13.330;2022-07-06T13:56:23;21.20;90.50
24420;DHT22;12599;52.426;13.330;2022-07-06T13:58:49;21.20;90.80
24420;DHT22;12599;52.426;13.330;2022-07-06T14:01:15;21.00;90.40
24420;DHT22;12599;52.426;13.330;2022-07-06T14:03:40;21.10;90.70
24420;DHT22;12599;52.426;13.330;2022-07-06T14:06:07;21.00;90.80
24420;DHT22;12599;52.426;13.330;2022-07-06T14:08:37;21.00;90.40
24420;DHT22;12599;52.426;13.330;2022-07-06T14:11:04;21.00;90.80
24420;DHT22;12599;52.426;13.330;2022-07-06T14:13:30;21.20;90.70
24420;DHT22;12599;52.426;13.330;2022-07-06T14:15:56;21.20;90.10
24420;DHT22;12599;52.426;13.330;2022-07-06T14:18:22;21.30;90.30
24420;DHT22;12599;52.426;13.330;2022-07-06T14:20:48;21.40;90.40
24420;DHT22;12599;52.426;13.330;2022-07-06T14:23:15;21.40;90.20
24420;DHT22;12599;52.426;13.330;2022-07-06T14:25:41;21.30;90.30
24420;DHT22;12599;52.426;13.330;2022-07-06T14:28:08;21.30;90.30
24420;DHT22;12599;52.426;13.330;2022-07-06T14:30:34;21.00;90.40
24420;DHT22;12599;52.426;13.330;2022-07-06T14:33:05;20.90;90.30
24420;DHT22;12599;52.426;13.330;2022-07-06T14:35:39;20.60;90.30
24420;DHT22;12599;52.426;13.330;2022-07-06T14:38:06;20.70;90.60
24420;DHT22;12599;52.426;13.330;2022-07-06T14:40:32;20.60;90.80
24420;DHT22;12599;52.426;13.330;2022-07-06T14:42:59;20.80;91.00
24420;DHT22;12599;52.426;13.330;2022-07-06T14:45:25;22.90;91.50
24420;DHT22;12599;52.426;13.330;2022-07-06T14:47:50;20.60;91.10
24420;DHT22;12599;52.426;13.330;2022-07-06T14:50:16;20.50;91.20
24420;DHT22;12599;52.426;13.330;2022-07-06T14:52:42;20.40;91.50
24420;DHT22;12599;52.426;13.330;2022-07-06T14:55:08;20.40;91.60
24420;DHT22;12599;52.426;13.330;2022-07-06T14:57:33;20.30;92.00
24420;DHT22;12599;52.426;13.330;2022-07-06T14:59:59;20.30;91.90
24420;DHT22;12599;52.426;13.330;2022-07-06T15:02:24;20.30;91.80
24420;DHT22;12599;52.426;13.330;2022-07-06T15:04:50;20.20;91.50
24420;DHT22;12599;52.426;13.330;2022-07-06T15:07:16;20.90;92.00
24420;DHT22;12599;52.426;13.330;2022-07-06T15:09:41;19.90;92.10
24420;DHT22;12599;52.426;13.330;2022-07-06T15:12:07;20.10;92.30
24420;DHT22;12599;52.426;13.330;2022-07-06T15:14:33;20.20;92.10
24420;DHT22;12599;52.426;13.330;2022-07-06T15:16:59;20.30;92.00
24420;DHT22;12599;52.426;13.330;2022-07-06T15:19:24;20.30;92.00
24420;DHT22;12599;52.426;13.330;2022-07-06T15:21:50;20.40;92.00
24420;DHT22;12599;52.426;13.330;2022-07-06T15:24:16;20.30;91.90
24420;DHT22;12599;52.426;13.330;2022-07-06T15:26:42;20.40;92.00